Time;durP1;ratioP1;P1;durP2;ratioP2;P2;SDS_P1;SDS_P2;PMS_P1;PMS_P2;Temp;Humidity;BMP_temperature;BMP_pressure;BME280_temperature;BME280_humidity;BME280_pressure;Samples;Min_cycle;Max_cycle;Signal;HPM_P1;HPM_P2
2022/03/04 00:01:21;;;;;;;8.70;7.40;;;2.00;77.50;;;;;;5052518;28;20260;-77
2022/03/04 00:03:50;;;;;;;12.30;7.37;;;1.90;77.90;;;;;;5052915;28;20281;-77
2022/03/04 00:06:19;;;;;;;8.23;6.57;;;1.90;76.10;;;;;;5054048;28;20245;-77
2022/03/04 00:08:47;;;;;;;9.63;6.87;;;1.80;77.10;;;;;;5054293;28;20233;-77
2022/03/04 00:11:17;;;;;;;9.13;6.72;;;1.80;76.30;;;;;;5053332;28;20248;-77
2022/03/04 00:13:45;;;;;;;12.87;7.33;;;1.70;77.30;;;;;;5054259;28;20240;-77
2022/03/04 00:16:14;;;;;;;8.00;6.37;;;1.70;78.50;;;;;;5053511;28;20257;-77
2022/03/04 00:18:42;;;;;;;8.93;7.03;;;1.70;80.20;;;;;;5054306;28;20212;-77
2022/03/04 00:21:11;;;;;;;8.63;6.80;;;1.60;78.20;;;;;;5053212;28;20252;-76
2022/03/04 00:23:39;;;;;;;8.17;6.93;;;1.60;77.70;;;;;;5054146;28;20226;-76
2022/03/04 00:26:08;;;;;;;8.30;7.47;;;1.60;78.90;;;;;;5054118;28;20233;-77
2022/03/04 00:28:38;;;;;;;11.20;7.83;;;1.60;82.70;;;;;;5053795;28;20229;-77
2022/03/04 00:31:06;;;;;;;7.93;7.10;;;1.60;84.50;;;;;;5053020;28;20249;-77
2022/03/04 00:33:34;;;;;;;9.37;6.97;;;1.60;82.70;;;;;;5053814;28;20202;-77
2022/03/04 00:36:03;;;;;;;7.97;7.07;;;1.50;81.70;;;;;;5053095;28;20299;-76
2022/03/04 00:38:32;;;;;;;10.23;7.67;;;1.50;81.50;;;;;;5053708;28;20202;-77
2022/03/04 00:41:01;;;;;;;9.27;7.43;;;1.50;81.40;;;;;;5053089;28;20222;-77
2022/03/04 00:43:30;;;;;;;9.07;6.80;;;1.60;83.10;;;;;;5053527;28;20213;-77
2022/03/04 00:46:01;;;;;;;8.30;7.37;;;1.50;80.70;;;;;;5053275;28;20239;-77
2022/03/04 00:48:29;;;;;;;8.17;6.63;;;1.60;82.40;;;;;;5053447;28;20240;-77
2022/03/04 00:50:58;;;;;;;8.97;6.83;;;1.50;80.40;;;;;;5052829;28;20241;-77
2022/03/04 00:53:26;;;;;;;10.87;7.80;;;1.60;80.20;;;;;;5053342;28;20206;-77
2022/03/04 00:55:54;;;;;;;10.87;7.40;;;1.50;81.60;;;;;;5053401;28;20225;-77
2022/03/04 00:58:23;;;;;;;9.47;7.23;;;1.60;81.90;;;;;;5033372;28;20241;-76
2022/03/04 01:00:51;;;;;;;8.77;7.47;;;1.50;82.00;;;;;;5047168;28;20317;-77
2022/03/04 01:03:21;;;;;;;8.87;7.20;;;1.60;82.10;;;;;;5052688;28;20200;-76
2022/03/04 01:05:49;;;;;;;14.93;7.97;;;1.60;83.50;;;;;;5053174;28;20194;-77
2022/03/04 01:08:18;;;;;;;9.27;7.00;;;1.50;82.90;;;;;;5053127;28;20234;-77
2022/03/04 01:10:47;;;;;;;16.47;8.53;;;1.50;82.70;;;;;;5052897;28;20230;-77
2022/03/04 01:13:15;;;;;;;7.77;6.67;;;1.50;82.00;;;;;;5053137;28;20202;-77
2022/03/04 01:15:44;;;;;;;14.13;7.93;;;1.40;85.40;;;;;;5053007;28;20209;-77
2022/03/04 01:18:12;;;;;;;10.60;7.27;;;1.40;82.80;;;;;;5052884;28;20201;-77
2022/03/04 01:20:43;;;;;;;10.80;7.70;;;1.40;84.70;;;;;;5052657;28;20252;-77
2022/03/04 01:23:11;;;;;;;18.60;8.37;;;1.40;82.20;;;;;;5051971;28;20210;-77
2022/03/04 01:25:40;;;;;;;7.50;6.77;;;1.40;83.20;;;;;;5051680;28;20194;-77
2022/03/04 01:28:09;;;;;;;9.30;7.53;;;1.40;83.80;;;;;;5052259;28;20217;-76
2022/03/04 01:30:37;;;;;;;10.23;7.13;;;1.40;82.90;;;;;;5052425;28;20201;-77
2022/03/04 01:33:07;;;;;;;10.30;6.93;;;1.40;82.90;;;;;;5052797;28;20225;-76
2022/03/04 01:35:36;;;;;;;10.93;8.47;;;1.40;80.90;;;;;;5035916;28;20229;-76
2022/03/04 01:38:06;;;;;;;14.77;8.13;;;1.40;81.30;;;;;;5052604;28;20247;-76
2022/03/04 01:40:35;;;;;;;15.47;8.33;;;1.40;82.40;;;;;;5052720;28;20225;-77
2022/03/04 01:43:04;;;;;;;12.23;7.20;;;1.40;83.10;;;;;;5052090;28;20198;-77
2022/03/04 01:45:32;;;;;;;9.43;7.43;;;1.40;83.20;;;;;;5053150;28;20202;-77
2022/03/04 01:48:00;;;;;;;9.57;7.57;;;1.30;82.80;;;;;;5052318;28;20202;-77
2022/03/04 01:50:29;;;;;;;13.13;7.57;;;1.30;83.70;;;;;;5052222;28;20309;-76
2022/03/04 01:52:57;;;;;;;12.27;8.20;;;1.30;83.40;;;;;;5052562;28;20238;-77
2022/03/04 01:55:27;;;;;;;9.90;7.80;;;1.30;83.80;;;;;;5052780;28;20222;-77
2022/03/04 01:57:56;;;;;;;9.17;7.30;;;1.20;82.30;;;;;;5052712;28;20225;-77
2022/03/04 02:00:24;;;;;;;10.27;7.80;;;1.20;84.90;;;;;;5054684;22;20325;-80
2022/03/04 02:02:57;;;;;;;11.73;7.93;;;1.10;85.20;;;;;;5013210;28;20203;-81
2022/03/04 02:05:26;;;;;;;13.30;9.03;;;1.10;85.10;;;;;;5012919;28;20299;-81
2022/03/04 02:07:55;;;;;;;11.03;8.33;;;1.10;85.00;;;;;;5012891;28;20239;-80
2022/03/04 02:10:23;;;;;;;9.80;7.67;;;1.20;86.60;;;;;;5012624;28;20250;-81
2022/03/04 02:12:54;;;;;;;11.50;8.80;;;1.20;85.10;;;;;;5012685;28;20273;-80
2022/03/04 02:15:22;;;;;;;8.77;7.50;;;1.10;85.60;;;;;;5013114;28;20196;-80
2022/03/04 02:17:50;;;;;;;14.17;8.73;;;1.10;85.90;;;;;;5012858;28;20203;-80
2022/03/04 02:20:22;;;;;;;16.50;9.70;;;1.10;85.90;;;;;;5012554;28;20306;-80
2022/03/04 02:22:52;;;;;;;19.57;8.27;;;1.10;86.20;;;;;;4997033;28;20203;-80
2022/03/04 02:25:20;;;;;;;19.67;9.87;;;1.10;87.50;;;;;;5012845;28;20234;-79
2022/03/04 02:27:48;;;;;;;13.40;9.40;;;1.10;86.60;;;;;;5012994;28;20198;-80
2022/03/04 02:30:17;;;;;;;16.50;10.17;;;1.10;88.50;;;;;;5006401;28;20250;-80
2022/03/04 02:32:45;;;;;;;12.13;9.03;;;1.10;88.10;;;;;;5016207;28;20234;-80
2022/03/04 02:35:13;;;;;;;22.73;9.60;;;1.10;87.70;;;;;;5016211;28;20210;-80
2022/03/04 02:37:42;;;;;;;11.70;8.87;;;1.10;88.00;;;;;;5015923;28;20215;-80
2022/03/04 02:40:13;;;;;;;10.83;8.77;;;1.10;88.40;;;;;;5015847;28;20219;-80
2022/03/04 02:42:42;;;;;;;16.67;10.10;;;1.10;90.10;;;;;;5015772;28;20208;-79
2022/03/04 02:45:10;;;;;;;11.90;8.53;;;1.00;88.80;;;;;;5015764;28;20203;-80
2022/03/04 02:47:38;;;;;;;13.20;8.70;;;1.00;89.50;;;;;;5016144;28;20210;-79
2022/03/04 02:50:07;;;;;;;11.07;8.63;;;1.00;89.60;;;;;;5015674;28;20273;-80
2022/03/04 02:52:35;;;;;;;10.00;9.00;;;0.90;89.70;;;;;;5015157;28;20207;-80
2022/03/04 02:55:05;;;;;;;9.03;7.97;;;0.90;90.20;;;;;;5015175;28;20227;-80
2022/03/04 02:57:35;;;;;;;17.80;8.90;;;0.90;90.90;;;;;;5015642;28;20223;-80
2022/03/04 03:00:05;;;;;;;13.20;9.37;;;0.90;91.20;;;;;;5016054;28;20292;-79
2022/03/04 03:02:34;;;;;;;14.30;9.47;;;0.90;91.40;;;;;;5014953;28;20219;-80
2022/03/04 03:05:03;;;;;;;20.63;9.60;;;0.80;91.60;;;;;;5015540;28;20205;-80
2022/03/04 03:07:31;;;;;;;13.10;8.97;;;0.80;90.80;;;;;;5014855;28;20286;-80
2022/03/04 03:09:59;;;;;;;20.23;11.17;;;0.80;92.00;;;;;;5014912;28;20227;-80
2022/03/04 03:12:28;;;;;;;15.70;11.23;;;0.80;92.10;;;;;;5015527;28;20233;-79
2022/03/04 03:14:58;;;;;;;13.67;9.83;;;0.80;92.40;;;;;;5015213;28;20214;-79
2022/03/04 03:17:26;;;;;;;12.67;10.50;;;0.80;92.70;;;;;;5015452;28;20219;-80
2022/03/04 03:19:55;;;;;;;15.50;11.23;;;0.90;92.80;;;;;;5015583;28;20239;-80
2022/03/04 03:22:23;;;;;;;14.20;10.53;;;0.90;93.20;;;;;;5015318;28;20195;-80
2022/03/04 03:24:51;;;;;;;12.97;10.37;;;0.90;93.30;;;;;;5014589;28;20230;-80
2022/03/04 03:27:20;;;;;;;11.33;9.47;;;0.90;94.80;;;;;;5015540;28;20207;-79
2022/03/04 03:29:48;;;;;;;14.63;10.83;;;0.90;93.80;;;;;;5014415;28;20287;-80
2022/03/04 03:32:18;;;;;;;17.57;11.03;;;0.90;94.30;;;;;;4996285;28;20204;-79
2022/03/04 03:34:47;;;;;;;17.80;12.07;;;0.90;94.70;;;;;;5002293;28;20199;-79
2022/03/04 03:37:15;;;;;;;18.63;13.73;;;0.90;95.10;;;;;;5015007;28;20278;-79
2022/03/04 03:39:44;;;;;;;18.13;13.87;;;0.90;95.90;;;;;;5014902;28;20246;-79
2022/03/04 03:42:12;;;;;;;17.30;15.13;;;0.90;96.80;;;;;;5014453;28;20195;-80
2022/03/04 03:44:41;;;;;;;21.70;15.07;;;0.80;99.90;;;;;;5014522;28;20235;-80
2022/03/04 03:47:10;;;;;;;20.20;14.67;;;0.70;99.70;;;;;;5014599;28;20203;-80
2022/03/04 03:49:40;;;;;;;28.50;15.37;;;0.70;99.90;;;;;;5015449;28;20258;-79
2022/03/04 03:52:08;;;;;;;21.77;15.97;;;0.70;99.90;;;;;;5015271;28;20238;-80
2022/03/04 03:54:37;;;;;;;20.90;15.20;;;0.70;99.90;;;;;;5015265;28;20210;-80
2022/03/04 03:57:05;;;;;;;26.57;18.90;;;0.60;99.90;;;;;;5014043;28;20322;-80
2022/03/04 03:59:33;;;;;;;34.73;18.40;;;0.60;99.90;;;;;;5014377;28;20255;-80
2022/03/04 04:02:02;;;;;;;19.73;15.87;;;0.60;99.90;;;;;;5014525;28;20234;-79
2022/03/04 04:04:34;;;;;;;22.23;17.47;;;0.60;99.90;;;;;;5014667;28;20210;-79
2022/03/04 04:07:04;;;;;;;27.37;17.93;;;0.60;99.90;;;;;;5014148;28;20223;-80
2022/03/04 04:09:33;;;;;;;24.03;17.73;;;0.60;99.90;;;;;;5014609;28;20253;-79
2022/03/04 04:12:02;;;;;;;21.33;16.23;;;0.60;99.90;;;;;;5014214;28;20271;-80
2022/03/04 04:14:30;;;;;;;22.80;18.17;;;0.60;99.90;;;;;;5014106;28;20223;-80
2022/03/04 04:16:59;;;;;;;30.20;19.43;;;0.60;99.90;;;;;;5014212;28;20234;-80
2022/03/04 04:19:28;;;;;;;19.37;16.20;;;0.70;99.90;;;;;;5014576;28;20235;-80
2022/03/04 04:21:56;;;;;;;28.60;17.77;;;0.70;99.90;;;;;;5014134;28;20283;-79
2022/03/04 04:24:26;;;;;;;22.10;17.27;;;0.70;99.90;;;;;;5014053;28;20277;-79
2022/03/04 04:26:54;;;;;;;24.17;17.37;;;0.70;99.90;;;;;;5014253;28;20219;-80
2022/03/04 04:29:23;;;;;;;25.20;16.70;;;0.60;99.90;;;;;;5013396;28;20288;-79
2022/03/04 04:31:51;;;;;;;26.83;16.63;;;0.70;99.90;;;;;;5014254;28;20235;-80
2022/03/04 04:34:20;;;;;;;30.93;17.40;;;0.70;99.90;;;;;;5013728;28;20211;-79
2022/03/04 04:36:48;;;;;;;26.57;17.97;;;0.80;99.90;;;;;;5013816;28;20238;-80
2022/03/04 04:39:16;;;;;;;26.70;17.07;;;0.80;99.90;;;;;;5013901;28;20203;-80
2022/03/04 04:41:46;;;;;;;24.73;18.33;;;0.80;99.90;;;;;;5013577;28;20207;-79
2022/03/04 04:44:15;;;;;;;19.37;15.43;;;0.80;99.90;;;;;;5013438;28;20235;-79
2022/03/04 04:46:43;;;;;;;20.70;15.90;;;0.80;99.90;;;;;;5013558;28;20203;-80
2022/03/04 04:49:11;;;;;;;33.07;18.97;;;0.70;99.90;;;;;;5013766;28;20207;-80
2022/03/04 04:51:40;;;;;;;21.33;15.50;;;0.70;99.90;;;;;;5013267;28;20238;-79
2022/03/04 04:54:08;;;;;;;21.23;17.23;;;0.60;99.90;;;;;;5011772;28;20203;-80
2022/03/04 04:56:37;;;;;;;31.87;18.90;;;0.60;99.90;;;;;;5013130;28;20250;-80
2022/03/04 04:59:07;;;;;;;22.07;16.67;;;0.60;99.90;;;;;;5011918;28;20247;-80
2022/03/04 05:01:35;;;;;;;27.10;18.83;;;0.60;99.90;;;;;;4993820;28;20240;-80
2022/03/04 05:04:04;;;;;;;26.60;18.50;;;0.50;99.90;;;;;;5002872;28;20230;-80
2022/03/04 05:06:32;;;;;;;25.13;18.40;;;0.50;99.90;;;;;;5013836;28;20233;-79
2022/03/04 05:09:00;;;;;;;33.60;19.23;;;0.50;99.90;;;;;;5013563;28;20231;-79
2022/03/04 05:11:29;;;;;;;27.87;18.23;;;0.50;99.90;;;;;;5013521;28;20227;-79
2022/03/04 05:13:57;;;;;;;21.50;16.43;;;0.50;99.90;;;;;;5013403;28;20226;-80
2022/03/04 05:16:27;;;;;;;24.13;17.50;;;0.60;99.90;;;;;;5013019;28;20203;-80
2022/03/04 05:18:55;;;;;;;29.30;18.63;;;0.60;99.90;;;;;;4993285;28;20247;-80
2022/03/04 05:21:24;;;;;;;23.00;17.53;;;0.60;99.90;;;;;;4993521;28;20278;-80
2022/03/04 05:24:02;;;;;;;29.77;18.10;;;0.70;99.90;;;;;;4993876;28;20278;-80
2022/03/04 05:26:32;;;;;;;26.83;18.67;;;0.70;99.90;;;;;;4999162;28;20210;-81
2022/03/04 05:29:01;;;;;;;29.53;18.40;;;0.70;99.90;;;;;;5013055;28;20231;-80
2022/03/04 05:31:31;;;;;;;29.93;18.97;;;0.70;99.90;;;;;;5012816;28;20300;-81
2022/03/04 05:34:00;;;;;;;30.97;17.30;;;0.70;99.90;;;;;;5012786;28;20199;-80
2022/03/04 05:36:29;;;;;;;28.13;18.90;;;0.60;99.90;;;;;;5002009;28;20279;-80
2022/03/04 05:38:57;;;;;;;25.67;19.83;;;0.60;99.90;;;;;;4993751;28;20247;-80
2022/03/04 05:41:26;;;;;;;27.57;19.67;;;0.70;99.90;;;;;;5010521;28;20223;-80
2022/03/04 05:43:55;;;;;;;25.77;18.53;;;0.60;99.90;;;;;;5013280;28;20219;-80
2022/03/04 05:46:23;;;;;;;19.13;15.53;;;0.60;99.90;;;;;;5013190;28;20203;-80
2022/03/04 05:48:53;;;;;;;28.13;17.53;;;0.60;99.90;;;;;;5013226;28;20191;-80
2022/03/04 05:51:22;;;;;;;24.47;16.07;;;0.70;99.90;;;;;;5013022;28;20297;-80
2022/03/04 05:53:51;;;;;;;23.47;16.57;;;0.70;99.90;;;;;;5013427;28;20269;-83
2022/03/04 05:56:20;;;;;;;26.37;16.87;;;0.70;99.90;;;;;;5014967;28;20207;-88
2022/03/04 05:58:55;;;;;;;23.57;16.87;;;0.60;99.90;;;;;;5012046;28;20247;-87
2022/03/04 06:01:23;;;;;;;26.03;16.73;;;0.60;99.90;;;;;;4997670;28;20230;-88
2022/03/04 06:03:54;;;;;;;22.77;16.10;;;0.60;99.90;;;;;;5015191;28;20210;-87
2022/03/04 06:06:23;;;;;;;18.97;15.40;;;0.60;99.90;;;;;;5009283;28;20261;-87
2022/03/04 06:08:52;;;;;;;19.37;14.13;;;0.60;99.90;;;;;;5017517;28;20211;-87
2022/03/04 06:11:21;;;;;;;21.43;14.87;;;0.70;99.90;;;;;;5016448;28;20227;-87
2022/03/04 06:13:50;;;;;;;18.17;13.80;;;0.70;99.90;;;;;;5016809;28;20269;-87
2022/03/04 06:16:20;;;;;;;20.60;15.17;;;0.80;99.90;;;;;;5016356;28;20196;-88
2022/03/04 06:18:48;;;;;;;20.63;14.83;;;0.90;99.90;;;;;;5016802;28;20269;-88
2022/03/04 06:21:18;;;;;;;23.63;14.90;;;0.80;99.90;;;;;;5016004;28;20277;-87
2022/03/04 06:23:46;;;;;;;25.53;16.43;;;0.80;99.90;;;;;;5015365;28;20234;-87
2022/03/04 06:26:15;;;;;;;35.10;14.93;;;0.90;99.90;;;;;;5015693;28;20280;-89
2022/03/04 06:28:44;;;;;;;20.03;14.27;;;0.90;99.90;;;;;;5016683;28;20265;-88
2022/03/04 06:31:13;;;;;;;23.23;15.17;;;0.90;99.90;;;;;;5017053;28;20278;-88
2022/03/04 06:33:42;;;;;;;19.83;14.13;;;0.90;99.90;;;;;;5020462;28;20200;-88
2022/03/04 06:36:14;;;;;;;18.93;13.53;;;1.00;99.90;;;;;;5017134;28;20207;-89
2022/03/04 06:38:46;;;;;;;27.60;13.03;;;1.00;99.90;;;;;;5015206;28;20219;-88
2022/03/04 06:41:16;;;;;;;17.43;13.73;;;1.00;99.90;;;;;;5015891;28;20292;-88
2022/03/04 06:43:45;;;;;;;19.17;12.90;;;1.00;99.90;;;;;;5013524;28;20203;-88
2022/03/04 06:46:13;;;;;;;24.03;14.13;;;1.10;99.90;;;;;;5016299;28;20211;-88
2022/03/04 06:48:43;;;;;;;16.83;12.47;;;1.10;99.90;;;;;;5015784;28;20199;-88
2022/03/04 06:51:13;;;;;;;18.70;13.97;;;1.10;99.90;;;;;;5015731;28;20222;-88
2022/03/04 06:53:41;;;;;;;23.03;12.57;;;1.10;99.90;;;;;;5015800;28;20199;-84
2022/03/04 06:56:11;;;;;;;19.87;13.97;;;1.10;99.90;;;;;;5015568;28;20207;-85
2022/03/04 06:58:40;;;;;;;22.53;14.60;;;1.10;99.90;;;;;;5014812;28;20220;-84
2022/03/04 07:01:09;;;;;;;28.90;13.97;;;1.10;99.90;;;;;;5013854;28;20223;-86
2022/03/04 07:03:38;;;;;;;18.40;13.37;;;1.10;99.90;;;;;;5014980;28;20325;-84
2022/03/04 07:06:06;;;;;;;17.47;13.10;;;1.10;99.90;;;;;;4997858;28;20203;-84
2022/03/04 07:08:37;;;;;;;23.27;14.33;;;1.10;99.90;;;;;;4998764;28;20195;-84
2022/03/04 07:11:06;;;;;;;19.43;14.03;;;1.10;99.90;;;;;;5014406;28;20223;-83
2022/03/04 07:13:36;;;;;;;23.80;14.97;;;1.10;99.90;;;;;;5014508;28;20211;-84
2022/03/04 07:16:05;;;;;;;17.90;13.23;;;1.00;99.90;;;;;;5013638;28;20212;-84
2022/03/04 07:18:40;;;;;;;20.67;13.83;;;1.10;99.90;;;;;;5014341;28;20246;-84
2022/03/04 07:21:09;;;;;;;16.43;12.57;;;1.00;99.90;;;;;;5009999;28;20229;-84
2022/03/04 07:23:38;;;;;;;17.77;13.80;;;1.00;99.90;;;;;;5011591;28;20211;-83
2022/03/04 07:26:09;;;;;;;17.47;13.60;;;1.00;99.90;;;;;;5014452;28;20294;-82
2022/03/04 07:28:38;;;;;;;18.27;12.40;;;1.00;99.90;;;;;;5012789;28;20223;-82
2022/03/04 07:31:07;;;;;;;19.93;13.10;;;1.10;99.90;;;;;;5013790;28;20215;-82
2022/03/04 07:33:36;;;;;;;37.27;15.33;;;1.10;99.90;;;;;;5014352;28;20238;-81
2022/03/04 07:36:08;;;;;;;32.23;16.70;;;1.10;99.90;;;;;;5015014;28;20203;-83
2022/03/04 07:38:37;;;;;;;23.07;16.40;;;1.10;99.90;;;;;;5011159;28;20196;-82
2022/03/04 07:41:09;;;;;;;22.43;15.70;;;1.20;99.90;;;;;;5004805;28;20240;-83
2022/03/04 07:43:39;;;;;;;21.30;15.13;;;1.20;99.90;;;;;;5002443;28;20195;-84
2022/03/04 07:46:17;;;;;;;20.03;14.43;;;1.00;99.90;;;;;;5014814;28;20202;-83
2022/03/04 07:48:46;;;;;;;20.00;14.10;;;1.10;99.90;;;;;;5014690;28;20195;-84
2022/03/04 07:51:15;;;;;;;27.07;14.20;;;1.10;99.90;;;;;;5014829;28;20226;-83
2022/03/04 07:53:44;;;;;;;20.87;14.37;;;1.10;99.90;;;;;;5018101;28;20218;-83
2022/03/04 07:56:13;;;;;;;24.83;14.57;;;1.20;99.90;;;;;;5014953;28;20257;-83
2022/03/04 07:58:44;;;;;;;22.60;14.80;;;1.30;99.90;;;;;;5014738;28;20227;-83
2022/03/04 08:01:13;;;;;;;19.17;14.27;;;1.40;99.90;;;;;;4995017;28;20323;-83
2022/03/04 08:03:48;;;;;;;17.70;13.27;;;1.40;99.90;;;;;;4999944;28;20201;-83
2022/03/04 08:06:18;;;;;;;15.97;12.50;;;1.50;99.90;;;;;;5014501;28;20222;-84
2022/03/04 08:12:37;;;;;;;18.13;12.57;;;1.50;99.90;;;;;;4994596;28;20206;-83
2022/03/04 08:15:12;;;;;;;18.20;12.43;;;1.70;99.90;;;;;;5008445;28;20203;-83
2022/03/04 08:17:45;;;;;;;15.80;12.10;;;1.70;99.90;;;;;;5014691;28;20228;-84
2022/03/04 08:20:13;;;;;;;24.38;13.23;;;1.80;99.90;;;;;;5013827;28;20223;-83
2022/03/04 08:22:42;;;;;;;17.67;13.13;;;1.90;99.90;;;;;;5014322;28;20338;-83
2022/03/04 08:25:10;;;;;;;19.93;12.43;;;2.20;99.90;;;;;;5013425;28;20235;-83
2022/03/04 08:27:39;;;;;;;16.13;12.63;;;2.40;99.90;;;;;;5012645;28;20215;-83
2022/03/04 08:30:12;;;;;;;19.55;13.18;;;2.60;99.90;;;;;;5013896;28;20215;-83
2022/03/04 08:32:42;;;;;;;17.52;12.90;;;2.80;99.90;;;;;;5013958;28;20199;-84
2022/03/04 08:35:11;;;;;;;13.13;11.48;;;3.00;99.90;;;;;;5014504;28;20211;-84
2022/03/04 08:37:40;;;;;;;24.92;13.90;;;3.10;99.90;;;;;;5013608;28;20203;-83
2022/03/04 08:40:11;;;;;;;21.52;12.98;;;3.20;99.90;;;;;;5013463;28;20222;-83
2022/03/04 08:42:41;;;;;;;21.25;13.18;;;3.40;99.90;;;;;;5013947;28;20191;-83
2022/03/04 08:45:13;;;;;;;26.88;13.68;;;3.30;99.90;;;;;;5014035;28;20195;-83
2022/03/04 08:47:46;;;;;;;22.13;14.75;;;3.40;99.90;;;;;;5014102;28;20211;-83
2022/03/04 08:50:16;;;;;;;14.63;12.25;;;3.40;99.90;;;;;;5013538;28;20219;-83
2022/03/04 08:52:45;;;;;;;21.38;14.77;;;3.50;99.90;;;;;;5014120;28;20203;-83
2022/03/04 08:55:15;;;;;;;17.60;12.65;;;3.70;99.90;;;;;;5013545;28;20206;-83
2022/03/04 08:57:44;;;;;;;16.17;12.85;;;3.80;99.90;;;;;;5013572;28;20203;-83
2022/03/04 09:00:17;;;;;;;22.58;13.35;;;3.70;99.90;;;;;;5008009;28;20227;-82
2022/03/04 09:02:46;;;;;;;16.73;13.15;;;3.60;99.90;;;;;;5013280;28;20249;-84
2022/03/04 09:05:14;;;;;;;17.40;12.77;;;3.90;99.90;;;;;;5013265;28;20203;-84
2022/03/04 09:07:43;;;;;;;17.27;11.48;;;4.10;99.90;;;;;;5012220;28;20199;-85
2022/03/04 09:10:12;;;;;;;15.35;12.68;;;4.20;99.20;;;;;;5012668;28;20293;-83
2022/03/04 09:12:41;;;;;;;19.85;13.07;;;4.20;99.70;;;;;;5012766;28;20277;-83
2022/03/04 09:15:10;;;;;;;16.30;12.55;;;4.40;99.10;;;;;;5012774;28;20262;-83
2022/03/04 09:17:40;;;;;;;16.30;13.68;;;4.30;98.70;;;;;;5013542;28;20204;-83
2022/03/04 09:20:10;;;;;;;17.50;13.27;;;4.20;98.60;;;;;;5012707;28;20258;-85
2022/03/04 09:22:38;;;;;;;17.52;13.43;;;4.20;98.50;;;;;;5012968;28;20233;-85
2022/03/04 09:25:08;;;;;;;24.17;14.68;;;4.20;99.00;;;;;;5012798;28;20273;-83
2022/03/04 09:27:36;;;;;;;14.43;11.80;;;4.30;98.90;;;;;;5013178;28;20257;-84
2022/03/04 09:30:06;;;;;;;20.98;13.18;;;4.30;98.30;;;;;;5013202;28;20223;-84
2022/03/04 09:32:35;;;;;;;19.27;14.10;;;4.60;97.90;;;;;;5012899;28;20230;-83
2022/03/04 09:35:17;;;;;;;14.57;12.05;;;4.80;98.00;;;;;;5013335;28;20261;-83
2022/03/04 09:37:50;;;;;;;14.52;12.00;;;5.30;97.00;;;;;;5013164;28;20216;-84
2022/03/04 09:40:18;;;;;;;15.32;13.45;;;6.10;95.80;;;;;;5015353;28;20211;-84
2022/03/04 09:42:47;;;;;;;22.17;14.55;;;6.50;93.30;;;;;;5017469;28;20207;-84
2022/03/04 09:45:15;;;;;;;17.83;14.77;;;6.00;93.20;;;;;;5016810;28;20195;-84
2022/03/04 09:47:44;;;;;;;23.75;14.40;;;6.20;93.50;;;;;;5016017;28;20199;-84
2022/03/04 09:50:15;;;;;;;18.58;14.27;;;6.50;93.00;;;;;;5016912;28;20218;-84
2022/03/04 09:52:46;;;;;;;21.13;14.00;;;6.90;91.90;;;;;;5013176;28;20257;-83
2022/03/04 09:55:15;;;;;;;15.35;13.35;;;7.10;91.70;;;;;;5016704;28;20207;-81
2022/03/04 09:57:44;;;;;;;17.70;13.68;;;6.90;91.20;;;;;;5004080;28;20207;-82
2022/03/04 10:00:14;;;;;;;20.00;13.65;;;6.40;91.60;;;;;;5016125;28;20258;-81
2022/03/04 10:02:43;;;;;;;18.42;13.35;;;6.30;91.70;;;;;;5015312;28;20206;-82
2022/03/04 10:05:12;;;;;;;17.63;14.45;;;6.30;92.90;;;;;;5016025;28;20203;-82
2022/03/04 10:07:42;;;;;;;18.05;12.80;;;6.10;92.80;;;;;;5016316;28;20195;-81
2022/03/04 10:10:14;;;;;;;15.93;13.05;;;6.30;92.70;;;;;;5016576;28;20230;-82
2022/03/04 10:12:50;;;;;;;18.35;13.82;;;6.10;92.10;;;;;;5015688;28;20195;-82
2022/03/04 10:15:20;;;;;;;17.25;12.15;;;6.30;91.90;;;;;;5016328;28;20210;-81
2022/03/04 10:18:03;;;;;;;15.55;13.70;;;6.20;92.80;;;;;;5016145;28;20257;-82
2022/03/04 10:20:38;;;;;;;17.27;13.23;;;5.80;92.30;;;;;;5015817;28;20274;-82
2022/03/04 10:23:22;;;;;;;14.93;12.75;;;6.00;93.50;;;;;;5015808;28;20215;-81
2022/03/04 10:26:01;;;;;;;18.35;13.73;;;6.00;92.00;;;;;;5015955;28;20215;-81
2022/03/04 10:28:33;;;;;;;18.92;12.90;;;5.80;92.10;;;;;;5015601;28;20203;-81
2022/03/04 10:31:02;;;;;;;16.73;12.85;;;5.60;93.80;;;;;;5015534;28;20219;-81
2022/03/04 10:34:07;;;;;;;21.52;12.60;;;5.60;94.00;;;;;;5012910;28;20287;-81
2022/03/04 10:36:56;;;;;;;17.10;13.10;;;5.70;93.40;;;;;;5015139;28;20203;-81
2022/03/04 10:39:24;;;;;;;19.60;12.77;;;5.70;92.70;;;;;;5015286;28;20195;-81
2022/03/04 10:41:55;;;;;;;17.42;12.48;;;5.70;92.40;;;;;;5015088;28;20242;-81
2022/03/04 10:44:27;;;;;;;18.50;12.57;;;5.60;93.20;;;;;;5015717;28;20210;-81
2022/03/04 10:46:57;;;;;;;14.75;12.45;;;5.40;93.10;;;;;;5015313;28;20207;-81
2022/03/04 10:49:30;;;;;;;15.82;12.25;;;5.30;93.90;;;;;;5015578;28;20204;-81
2022/03/04 10:52:07;;;;;;;19.00;12.50;;;5.10;93.40;;;;;;5009555;28;20203;-80
2022/03/04 10:54:35;;;;;;;13.73;11.20;;;4.90;93.80;;;;;;5015760;28;20211;-81
2022/03/04 10:57:19;;;;;;;13.90;11.48;;;4.90;94.00;;;;;;5014896;28;20219;-80
2022/03/04 10:59:56;;;;;;;18.52;13.18;;;4.90;93.90;;;;;;5015065;28;20262;-82
2022/03/04 11:02:42;;;;;;;13.05;10.98;;;4.90;93.70;;;;;;5014493;28;20223;-81
2022/03/04 11:05:11;;;;;;;17.20;11.88;;;5.00;94.20;;;;;;5015350;28;20237;-81
2022/03/04 11:07:42;;;;;;;18.58;13.38;;;5.00;93.60;;;;;;5005138;28;20235;-81
2022/03/04 11:10:11;;;;;;;13.05;11.30;;;4.90;93.70;;;;;;4995393;28;20224;-82
2022/03/04 11:12:42;;;;;;;18.63;12.23;;;5.10;94.20;;;;;;4995591;28;20219;-83
2022/03/04 11:15:14;;;;;;;14.35;12.10;;;5.20;93.90;;;;;;5002463;28;20203;-82
2022/03/04 11:17:52;;;;;;;14.65;11.77;;;5.20;93.90;;;;;;5015522;28;20207;-83
2022/03/04 11:20:21;;;;;;;15.63;11.48;;;5.30;94.20;;;;;;5014900;28;20230;-83
2022/03/04 11:22:51;;;;;;;18.98;12.07;;;5.40;93.40;;;;;;5014487;28;20214;-84
2022/03/04 11:26:00;;;;;;;;;;;;;;;;;;;;;
2022/03/04 11:28:54;;;;;;;12.23;10.75;;;5.80;92.70;;;;;;5014434;28;20211;-82
2022/03/04 11:31:25;;;;;;;16.30;11.43;;;5.90;92.30;;;;;;5015035;28;20219;-82
2022/03/04 11:33:56;;;;;;;16.95;10.82;;;5.80;92.50;;;;;;5016257;28;20215;-82
2022/03/04 11:36:27;;;;;;;12.30;10.32;;;5.70;92.20;;;;;;5015201;28;20222;-82
2022/03/04 11:39:04;;;;;;;15.27;10.32;;;5.70;92.20;;;;;;5014520;28;20290;-82
2022/03/04 11:41:37;;;;;;;11.00;9.55;;;5.60;92.10;;;;;;5014263;28;20245;-82
2022/03/04 11:44:46;;;;;;;10.45;9.32;;;5.60;92.00;;;;;;5014706;28;20215;-81
2022/03/04 11:47:27;;;;;;;14.00;10.60;;;5.80;92.40;;;;;;5000968;28;20207;-82
2022/03/04 11:49:56;;;;;;;11.50;9.45;;;6.20;91.60;;;;;;5013084;28;20238;-82
2022/03/04 11:52:44;;;;;;;13.85;10.23;;;6.30;91.50;;;;;;4999202;28;20223;-81
2022/03/04 11:55:23;;;;;;;13.32;9.85;;;6.40;90.70;;;;;;4995000;28;20200;-82
2022/03/04 11:58:09;;;;;;;16.92;10.05;;;6.50;90.60;;;;;;5010008;28;20211;-82
2022/03/04 12:00:40;;;;;;;13.68;9.40;;;6.60;90.80;;;;;;5013276;28;20234;-82
2022/03/04 12:03:23;;;;;;;10.73;9.63;;;6.90;90.40;;;;;;5014277;28;20207;-82
2022/03/04 12:06:05;;;;;;;13.68;10.32;;;7.30;90.10;;;;;;5013535;28;20199;-82
2022/03/04 12:08:45;;;;;;;10.85;8.48;;;7.70;87.40;;;;;;5014532;28;20207;-82
2022/03/04 12:11:24;;;;;;;13.93;9.85;;;7.80;87.10;;;;;;5011526;28;20219;-82
2022/03/04 12:14:08;;;;;;;13.60;10.18;;;7.90;86.10;;;;;;4995674;28;20207;-82
2022/03/04 12:16:58;;;;;;;15.73;11.38;;;8.00;86.10;;;;;;5013580;28;20199;-82
2022/03/04 12:19:34;;;;;;;16.08;10.65;;;8.00;85.00;;;;;;5013545;28;20191;-82
2022/03/04 12:22:03;;;;;;;14.73;10.88;;;8.00;84.90;;;;;;5013705;28;20215;-83
2022/03/04 12:24:33;;;;;;;12.82;10.48;;;7.80;85.20;;;;;;5013951;28;20227;-82
2022/03/04 12:27:37;;;;;;;16.27;11.02;;;7.60;85.60;;;;;;5013938;28;20199;-82
2022/03/04 12:30:20;;;;;;;15.88;11.40;;;7.90;85.50;;;;;;5013616;28;20219;-82
2022/03/04 12:32:50;;;;;;;15.20;10.82;;;8.00;85.40;;;;;;5013820;28;20250;-82
2022/03/04 12:35:21;;;;;;;12.88;10.23;;;8.50;83.90;;;;;;5013257;28;20207;-82
2022/03/04 12:37:55;;;;;;;10.98;9.73;;;9.30;82.10;;;;;;5013524;28;20211;-82
2022/03/04 12:40:28;;;;;;;10.07;9.00;;;9.80;78.50;;;;;;5012961;28;20233;-82
2022/03/04 12:42:57;;;;;;;10.57;8.80;;;10.30;75.90;;;;;;5012730;28;20215;-82
2022/03/04 12:45:28;;;;;;;11.18;8.40;;;10.70;75.10;;;;;;5013868;28;20213;-82
2022/03/04 12:47:57;;;;;;;10.05;9.05;;;11.30;71.50;;;;;;5013295;28;20201;-82
2022/03/04 12:50:38;;;;;;;12.25;10.30;;;11.90;69.60;;;;;;5012811;28;20223;-82
2022/03/04 12:53:19;;;;;;;10.68;9.02;;;12.20;69.30;;;;;;5013252;28;20254;-82
2022/03/04 12:55:50;;;;;;;12.48;8.82;;;12.80;66.20;;;;;;5012969;28;20241;-85
2022/03/04 12:58:34;;;;;;;10.48;9.02;;;12.40;62.70;;;;;;5013277;28;20269;-83
2022/03/04 13:01:04;;;;;;;10.18;8.60;;;11.70;63.00;;;;;;5012574;28;20243;-83
2022/03/04 13:03:33;;;;;;;10.38;8.60;;;11.20;66.10;;;;;;4993239;28;20247;-83